Time;durP1;ratioP1;P1;durP2;ratioP2;P2;SDS_P1;SDS_P2;PMS_P1;PMS_P2;Temp;Humidity;BMP_temperature;BMP_pressure;BME280_temperature;BME280_humidity;BME280_pressure;Samples;Min_cycle;Max_cycle;Signal;HPM_P1;HPM_P2
2023/12/21 00:00:10;;;;;;;0.30;0.30;;;;;;;3.03;99.25;96273.91;5039303;28;20081;-60
2023/12/21 00:02:36;;;;;;;0.40;0.40;;;;;;;2.54;97.83;96189.44;5024598;28;20050;-63
2023/12/21 00:05:04;;;;;;;0.40;0.40;;;;;;;3.13;97.02;96272.66;5024446;28;20064;-60
2023/12/21 00:07:31;;;;;;;0.38;0.38;;;;;;;3.13;97.09;96266.41;5022611;28;20053;-62
2023/12/21 00:09:58;;;;;;;0.40;0.40;;;;;;;3.17;96.76;96273.59;5023007;28;20049;-60
2023/12/21 00:12:25;;;;;;;0.40;0.40;;;;;;;2.59;97.37;96216.56;5024323;28;20081;-63
2023/12/21 00:14:52;;;;;;;0.30;0.30;;;;;;;3.00;98.14;96273.81;5038659;28;20501;-60
2023/12/21 00:17:19;;;;;;;0.30;0.30;;;;;;;2.32;97.71;96176.22;5022686;28;20055;-61
2023/12/21 00:19:46;;;;;;;0.30;0.30;;;;;;;2.67;97.98;96275.81;5023833;28;20050;-61
2023/12/21 00:22:12;;;;;;;0.35;0.35;;;;;;;2.50;100.00;96276.78;5033948;28;20140;-62
2023/12/21 00:24:39;;;;;;;0.35;0.35;;;;;;;1.94;99.88;96164.72;5044054;28;20053;-59
2023/12/21 00:27:06;;;;;;;0.30;0.30;;;;;;;2.61;99.82;96260.75;5044196;28;20143;-60
2023/12/21 00:29:33;;;;;;;0.40;0.40;;;;;;;2.64;99.56;96265.56;5042539;28;20055;-62
2023/12/21 00:31:59;;;;;;;0.40;0.40;;;;;;;2.67;99.14;96265.66;5044104;28;20491;-60
2023/12/21 00:34:26;;;;;;;0.30;0.30;;;;;;;2.04;98.54;96164.31;5042901;28;20059;-61
2023/12/21 00:36:53;;;;;;;0.40;0.40;;;;;;;2.25;98.04;96204.06;5044726;28;20057;-60
2023/12/21 00:39:20;;;;;;;0.40;0.40;;;;;;;2.71;98.32;96260.31;5050413;28;20523;-60
2023/12/21 00:41:47;;;;;;;0.30;0.30;;;;;;;2.68;98.28;96255.53;5048837;28;20056;-60
2023/12/21 00:44:13;;;;;;;0.30;0.30;;;;;;;2.70;98.12;96259.50;5049027;28;20049;-63
2023/12/21 00:46:40;;;;;;;0.30;0.30;;;;;;;2.62;96.46;96240.47;5048973;28;20060;-60
2023/12/21 00:49:07;;;;;;;0.40;0.40;;;;;;;2.67;96.91;96259.41;5048695;28;20053;-60
2023/12/21 00:51:34;;;;;;;0.35;0.35;;;;;;;2.26;97.09;96193.97;5048904;28;20128;-60
2023/12/21 00:54:01;;;;;;;0.32;0.32;;;;;;;2.65;97.33;96267.13;5050116;28;20056;-60
2023/12/21 00:56:27;;;;;;;0.30;0.30;;;;;;;2.49;96.77;96290.78;5050317;28;20144;-61
2023/12/21 00:58:59;;;;;;;0.40;0.40;;;;;;;1.58;97.27;96111.59;5050178;28;20045;-63
2023/12/21 01:01:26;;;;;;;0.40;0.40;;;;;;;2.73;97.24;96267.06;5050117;28;20056;-61
2023/12/21 01:03:53;;;;;;;0.30;0.30;;;;;;;2.51;97.51;96258.47;5048804;28;20148;-60
2023/12/21 01:06:20;;;;;;;0.35;0.35;;;;;;;2.56;98.07;96263.72;5048466;28;20056;-60
2023/12/21 01:08:47;;;;;;;0.40;0.40;;;;;;;2.57;98.02;96254.38;5049865;28;20143;-62
2023/12/21 01:11:14;;;;;;;0.40;0.40;;;;;;;2.47;98.44;96239.19;5048898;28;20049;-60
2023/12/21 01:13:40;;;;;;;0.30;0.30;;;;;;;2.62;98.41;96245.94;5050400;28;20060;-60
2023/12/21 01:16:07;;;;;;;0.30;0.30;;;;;;;2.51;97.75;96214.72;5048496;28;20049;-61
2023/12/21 01:18:34;;;;;;;0.30;0.30;;;;;;;2.72;97.41;96248.22;5049717;28;20059;-62
2023/12/21 01:21:01;;;;;;;0.32;0.32;;;;;;;2.23;97.96;96189.16;5050168;28;20056;-60
2023/12/21 01:23:28;;;;;;;0.40;0.40;;;;;;;1.97;98.45;96131.28;5048551;28;20052;-60
2023/12/21 01:25:55;;;;;;;0.30;0.30;;;;;;;2.61;97.45;96219.72;5048860;28;20067;-63
2023/12/21 01:28:21;;;;;;;0.30;0.30;;;;;;;1.98;98.04;96114.56;5048479;28;20060;-63
2023/12/21 01:30:48;;;;;;;0.40;0.40;;;;;;;2.60;100.00;96218.16;5049945;28;20044;-60
2023/12/21 01:33:15;;;;;;;0.35;0.35;;;;;;;-0.05;100.00;95805.50;5048513;28;20107;-60
2023/12/21 01:35:42;;;;;;;0.38;0.38;;;;;;;1.90;100.00;96117.41;5050150;28;20049;-60
2023/12/21 01:38:09;;;;;;;0.40;0.40;;;;;;;2.50;100.00;96205.72;5048885;28;20065;-60
2023/12/21 01:40:35;;;;;;;0.35;0.35;;;;;;;2.48;100.00;96208.00;5048474;28;20049;-61
2023/12/21 01:43:02;;;;;;;0.30;0.30;;;;;;;2.43;100.00;96199.22;5048469;28;20088;-61
2023/12/21 01:45:30;;;;;;;0.30;0.30;;;;;;;2.30;100.00;96200.31;5049919;28;20056;-60
2023/12/21 01:47:57;;;;;;;0.40;0.40;;;;;;;2.38;100.00;96189.31;5048260;28;20526;-62
2023/12/21 01:50:25;;;;;;;0.40;0.40;;;;;;;2.30;100.00;96189.41;5045374;28;20080;-61
2023/12/21 01:52:55;;;;;;;0.30;0.30;;;;;;;2.39;100.00;96179.16;5046519;28;20049;-61
2023/12/21 01:55:23;;;;;;;0.30;0.30;;;;;;;2.37;99.51;96184.19;5045545;28;20084;-62
2023/12/21 01:57:50;;;;;;;0.30;0.30;;;;;;;2.31;99.59;96180.09;5046991;28;20124;-60
2023/12/21 02:00:17;;;;;;;0.30;0.30;;;;;;;2.21;99.96;96164.94;5046540;28;20055;-62
2023/12/21 02:02:44;;;;;;;0.35;0.35;;;;;;;2.07;100.00;96163.63;5045306;28;20061;-59
2023/12/21 02:05:11;;;;;;;0.40;0.40;;;;;;;2.23;100.00;96157.16;5046568;28;20041;-59
2023/12/21 02:07:39;;;;;;;0.30;0.30;;;;;;;1.71;100.00;96112.44;5046148;28;20115;-62
2023/12/21 02:10:06;;;;;;;0.30;0.30;;;;;;;1.86;100.00;96163.69;5046415;28;20412;-59
2023/12/21 02:12:33;;;;;;;0.30;0.30;;;;;;;1.29;100.00;96054.44;5046146;28;20061;-59
2023/12/21 02:15:00;;;;;;;0.30;0.30;;;;;;;1.76;100.00;96174.19;5044719;28;20049;-59
2023/12/21 02:17:28;;;;;;;0.40;0.40;;;;;;;1.47;100.00;96118.59;5044544;28;20091;-59
2023/12/21 02:19:56;;;;;;;0.30;0.30;;;;;;;1.81;100.00;96154.88;5046226;28;20049;-61
2023/12/21 02:22:26;;;;;;;0.40;0.40;;;;;;;1.89;100.00;96157.53;5044502;28;20087;-59
2023/12/21 02:24:53;;;;;;;0.30;0.30;;;;;;;1.30;100.00;96060.69;5045964;28;20080;-61
2023/12/21 02:27:20;;;;;;;0.30;0.30;;;;;;;2.06;100.00;96156.56;5060989;28;20056;-60
2023/12/21 02:29:47;;;;;;;0.40;0.40;;;;;;;1.96;100.00;96157.78;5045832;28;20075;-62
2023/12/21 02:32:14;;;;;;;0.40;0.40;;;;;;;1.75;100.00;96118.84;5044768;28;20052;-59
2023/12/21 02:34:41;;;;;;;0.30;0.30;;;;;;;1.88;100.00;96103.28;5044080;28;20053;-60
2023/12/21 02:37:08;;;;;;;0.30;0.30;;;;;;;2.19;99.36;96155.47;5044354;28;20053;-60
2023/12/21 02:39:35;;;;;;;0.40;0.40;;;;;;;2.16;99.56;96145.22;5045275;28;20056;-61
2023/12/21 02:42:01;;;;;;;0.30;0.30;;;;;;;2.02;99.82;96128.34;5045666;28;20060;-59
2023/12/21 02:44:28;;;;;;;0.32;0.32;;;;;;;2.24;98.60;96141.59;5045545;28;20041;-60
2023/12/21 02:46:55;;;;;;;0.30;0.30;;;;;;;2.10;99.72;96138.38;5043850;28;20049;-60
2023/12/21 02:49:21;;;;;;;0.30;0.30;;;;;;;2.10;99.70;96136.44;5046245;28;20805;-59
2023/12/21 02:51:48;;;;;;;0.30;0.30;;;;;;;2.15;99.38;96138.16;5044034;28;20057;-59
2023/12/21 02:54:15;;;;;;;0.40;0.40;;;;;;;1.49;99.59;96018.13;5044100;28;20060;-60
2023/12/21 02:56:42;;;;;;;0.40;0.40;;;;;;;2.02;99.79;96114.69;5045350;28;20059;-58
2023/12/21 02:59:08;;;;;;;0.40;0.40;;;;;;;2.10;99.27;96135.66;5045127;28;20048;-60
2023/12/21 03:01:41;;;;;;;0.30;0.30;;;;;;;1.94;99.05;96137.41;5045012;28;20090;-60
2023/12/21 03:04:09;;;;;;;0.30;0.30;;;;;;;2.14;98.07;96152.94;5043618;28;20131;-59
2023/12/21 03:06:36;;;;;;;0.32;0.32;;;;;;;1.86;97.83;96124.66;5044767;28;20057;-59
2023/12/21 03:09:03;;;;;;;0.30;0.30;;;;;;;1.88;98.57;96149.69;5043464;28;20056;-59
2023/12/21 03:11:30;;;;;;;0.30;0.30;;;;;;;1.89;98.73;96145.81;5045106;28;20452;-59
2023/12/21 03:13:57;;;;;;;0.30;0.30;;;;;;;1.91;98.86;96166.22;5045010;28;20060;-61
2023/12/21 03:16:24;;;;;;;0.30;0.30;;;;;;;1.95;98.60;96144.47;5044786;28;20339;-59
2023/12/21 03:18:50;;;;;;;0.30;0.30;;;;;;;1.91;98.54;96157.22;5043845;28;20048;-59
2023/12/21 03:21:17;;;;;;;0.30;0.30;;;;;;;1.39;98.63;96078.56;5043304;28;20364;-59
2023/12/21 03:23:44;;;;;;;0.40;0.40;;;;;;;1.92;98.60;96150.59;5044987;28;20084;-60
2023/12/21 03:26:11;;;;;;;0.40;0.40;;;;;;;1.80;99.42;96147.84;5043307;28;20144;-59
2023/12/21 03:28:44;;;;;;;0.40;0.40;;;;;;;1.95;99.19;96147.19;5044392;28;20049;-59
2023/12/21 03:31:12;;;;;;;0.35;0.35;;;;;;;1.92;99.45;96139.69;5044416;28;20492;-58
2023/12/21 03:33:38;;;;;;;0.30;0.30;;;;;;;1.91;99.77;96132.63;5044047;28;20128;-60
2023/12/21 03:36:06;;;;;;;0.38;0.38;;;;;;;2.02;99.21;96134.63;5044490;28;20063;-59
2023/12/21 03:38:33;;;;;;;0.30;0.30;;;;;;;2.03;99.62;96129.94;5041819;28;20148;-62
2023/12/21 03:40:59;;;;;;;0.30;0.30;;;;;;;1.55;100.00;96071.34;5035899;28;20045;-59
2023/12/21 03:43:26;;;;;;;0.30;0.30;;;;;;;1.90;100.00;96129.09;5042886;28;20561;-60
2023/12/21 03:45:56;;;;;;;0.32;0.32;;;;;;;2.09;100.00;96136.75;5042941;28;20073;-59
2023/12/21 03:48:24;;;;;;;0.30;0.30;;;;;;;1.48;100.00;96076.56;5043854;28;20049;-62
2023/12/21 03:50:50;;;;;;;0.30;0.30;;;;;;;2.00;100.00;96136.88;5042447;28;20581;-62
2023/12/21 03:53:17;;;;;;;0.30;0.30;;;;;;;1.78;100.00;96090.06;5044257;28;20072;-59
2023/12/21 03:55:44;;;;;;;0.32;0.32;;;;;;;2.14;100.00;96131.09;5044165;28;20075;-60
2023/12/21 03:58:10;;;;;;;0.30;0.30;;;;;;;2.13;100.00;96124.03;5044587;28;20098;-59
2023/12/21 04:00:37;;;;;;;0.30;0.30;;;;;;;2.14;100.00;96120.16;5042380;28;20503;-60
2023/12/21 04:03:04;;;;;;;0.30;0.30;;;;;;;2.14;100.00;96125.63;5044356;28;20053;-60
2023/12/21 04:05:31;;;;;;;0.30;0.30;;;;;;;1.87;99.17;96071.63;5044334;28;20096;-62
2023/12/21 04:07:58;;;;;;;0.40;0.40;;;;;;;2.05;97.32;96100.34;5042853;28;20056;-59
2023/12/21 04:10:25;;;;;;;0.30;0.30;;;;;;;1.72;98.24;96058.66;5044046;28;20060;-59
2023/12/21 04:12:51;;;;;;;0.30;0.30;;;;;;;2.04;98.59;96120.63;5042185;28;20049;-61
2023/12/21 04:15:18;;;;;;;0.40;0.40;;;;;;;1.83;98.47;96098.03;5043582;28;20055;-60
2023/12/21 04:17:45;;;;;;;0.30;0.30;;;;;;;1.96;97.98;96124.25;5044100;28;20053;-60
2023/12/21 04:20:12;;;;;;;0.30;0.30;;;;;;;1.93;98.62;96130.38;5042562;28;20326;-64
2023/12/21 04:22:38;;;;;;;0.30;0.30;;;;;;;0.96;99.82;96048.16;5042025;28;20053;-59
2023/12/21 04:25:06;;;;;;;0.30;0.30;;;;;;;1.11;100.00;96093.91;5043623;28;20052;-59
2023/12/21 04:27:33;;;;;;;0.30;0.30;;;;;;;0.82;100.00;96035.94;5043761;28;20110;-59
2023/12/21 04:29:59;;;;;;;0.30;0.30;;;;;;;1.54;100.00;96124.34;5043539;28;20055;-60
2023/12/21 04:32:26;;;;;;;0.30;0.30;;;;;;;0.63;100.00;95968.28;5043476;28;20056;-62
2023/12/21 04:34:53;;;;;;;0.30;0.30;;;;;;;1.58;100.00;96125.25;5041970;28;20168;-59
2023/12/21 04:37:20;;;;;;;0.32;0.32;;;;;;;1.56;100.00;96116.59;5043759;28;20053;-60
2023/12/21 04:39:47;;;;;;;0.30;0.30;;;;;;;1.43;100.00;96101.31;5042172;28;20494;-60
2023/12/21 04:42:14;;;;;;;0.30;0.30;;;;;;;1.63;98.86;96121.50;5043794;28;20049;-60
2023/12/21 04:44:41;;;;;;;0.32;0.32;;;;;;;1.36;100.00;96101.06;5043619;28;20063;-62
2023/12/21 04:47:09;;;;;;;0.40;0.40;;;;;;;1.46;99.43;96133.38;5042229;28;20049;-59
2023/12/21 04:49:49;;;;;;;0.30;0.30;;;;;;;1.39;99.90;96127.66;5042452;28;20065;-61
2023/12/21 04:52:16;;;;;;;0.30;0.30;;;;;;;1.37;100.00;96119.03;5042165;28;20092;-60
2023/12/21 04:54:44;;;;;;;0.30;0.30;;;;;;;0.87;100.00;96044.69;5043600;28;20077;-60
2023/12/21 04:57:11;;;;;;;0.30;0.30;;;;;;;1.32;100.00;96121.16;5043670;28;20110;-60
2023/12/21 04:59:42;;;;;;;0.30;0.30;;;;;;;1.32;100.00;96119.22;5043607;28;20140;-60
2023/12/21 05:02:09;;;;;;;0.30;0.30;;;;;;;1.47;99.07;96137.69;5043461;28;20053;-61
2023/12/21 05:04:36;;;;;;;0.30;0.30;;;;;;;0.97;98.93;96082.47;5043382;28;20053;-59
2023/12/21 05:07:08;;;;;;;0.30;0.30;;;;;;;1.32;99.85;96127.41;5041979;28;20543;-60
2023/12/21 05:09:36;;;;;;;;;;;;;;;1.28;100.00;96126.47;5043453;28;20931;-59
2023/12/21 05:12:04;;;;;;;0.30;0.30;;;;;;;1.10;100.00;96127.75;5058653;28;19924;-60
2023/12/21 05:14:30;;;;;;;0.30;0.30;;;;;;;1.06;100.00;96113.16;5042480;28;20049;-60
2023/12/21 05:16:57;;;;;;;0.30;0.30;;;;;;;0.50;100.00;96032.00;5043374;28;20116;-59
2023/12/21 05:19:24;;;;;;;0.30;0.30;;;;;;;1.05;100.00;96121.69;5043486;28;20062;-61
2023/12/21 05:21:51;;;;;;;0.30;0.30;;;;;;;0.59;100.00;96070.88;5041646;28;20045;-60
2023/12/21 05:24:18;;;;;;;0.30;0.30;;;;;;;1.10;100.00;96133.22;5044158;28;20057;-62
2023/12/21 05:26:45;;;;;;;0.30;0.30;;;;;;;0.30;100.00;96005.50;5047456;28;20132;-59
2023/12/21 05:29:11;;;;;;;0.30;0.30;;;;;;;1.19;100.00;96133.94;5047226;28;20053;-60
2023/12/21 05:31:38;;;;;;;0.30;0.30;;;;;;;0.60;100.00;96058.06;5046725;28;20500;-63
2023/12/21 05:34:05;;;;;;;0.30;0.30;;;;;;;1.14;100.00;96142.31;5046499;28;20495;-60
2023/12/21 05:36:32;;;;;;;0.30;0.30;;;;;;;1.14;100.00;96147.75;5045570;28;20080;-58
2023/12/21 05:39:00;;;;;;;0.30;0.30;;;;;;;1.06;100.00;96132.25;5045147;28;20056;-58
2023/12/21 05:41:27;;;;;;;0.32;0.32;;;;;;;1.10;100.00;96146.84;5046739;28;20049;-58
2023/12/21 05:43:55;;;;;;;0.30;0.30;;;;;;;0.80;100.00;96093.50;5046433;28;20136;-58
2023/12/21 05:46:22;;;;;;;0.30;0.30;;;;;;;1.13;100.00;96151.63;5046194;28;20107;-59
2023/12/21 05:48:49;;;;;;;0.30;0.30;;;;;;;1.16;100.00;96142.78;5045993;28;20150;-60
2023/12/21 05:51:15;;;;;;;0.30;0.30;;;;;;;1.00;100.00;96152.69;5046698;28;20597;-58
2023/12/21 05:53:42;;;;;;;0.30;0.30;;;;;;;0.96;100.00;96140.84;5046028;28;20545;-59
2023/12/21 05:56:09;;;;;;;0.32;0.32;;;;;;;1.04;100.00;96153.59;5044150;28;20040;-60
2023/12/21 05:58:36;;;;;;;0.30;0.30;;;;;;;1.11;100.00;96137.53;5045678;28;20056;-59
2023/12/21 06:01:04;;;;;;;0.30;0.30;;;;;;;1.19;100.00;96144.84;5045428;28;20534;-59
2023/12/21 06:03:31;;;;;;;0.30;0.30;;;;;;;1.13;100.00;96159.00;5043778;28;20138;-60
2023/12/21 06:05:59;;;;;;;0.30;0.30;;;;;;;1.27;100.00;96138.53;5045269;28;20059;-59
2023/12/21 06:08:26;;;;;;;0.30;0.30;;;;;;;1.39;100.00;96132.34;5045399;28;20057;-60
2023/12/21 06:10:53;;;;;;;0.30;0.30;;;;;;;1.43;100.00;96144.97;5046136;28;20053;-61
2023/12/21 06:13:20;;;;;;;0.30;0.30;;;;;;;1.51;100.00;96148.75;5044740;28;20128;-61
2023/12/21 06:15:46;;;;;;;0.30;0.30;;;;;;;1.50;100.00;96161.59;5044927;28;20504;-61
2023/12/21 06:18:13;;;;;;;0.30;0.30;;;;;;;1.51;100.00;96146.03;5046564;28;20060;-60
2023/12/21 06:20:40;;;;;;;0.30;0.30;;;;;;;1.64;100.00;96138.69;5046056;28;20088;-60
2023/12/21 06:23:07;;;;;;;0.40;0.40;;;;;;;1.60;100.00;96154.16;5046325;28;20527;-60
2023/12/21 06:25:33;;;;;;;0.30;0.30;;;;;;;1.70;100.00;96149.06;5046197;28;20059;-60
2023/12/21 06:28:03;;;;;;;0.30;0.30;;;;;;;1.84;100.00;96148.75;5046099;28;20455;-62
2023/12/21 06:30:30;;;;;;;0.30;0.30;;;;;;;1.80;100.00;96136.94;5045628;28;20583;-62
2023/12/21 06:32:57;;;;;;;0.30;0.30;;;;;;;2.09;100.00;96150.41;5044642;28;20057;-60
2023/12/21 06:35:24;;;;;;;0.30;0.30;;;;;;;2.08;100.00;96148.84;5045200;28;20140;-60
2023/12/21 06:37:51;;;;;;;0.30;0.30;;;;;;;2.19;100.00;96150.00;5045963;28;20056;-62
2023/12/21 06:40:17;;;;;;;0.30;0.30;;;;;;;2.24;100.00;96153.31;5045474;28;20439;-60
2023/12/21 06:42:44;;;;;;;0.30;0.30;;;;;;;2.36;99.70;96155.25;5044983;28;20869;-60
2023/12/21 06:45:12;;;;;;;0.30;0.30;;;;;;;2.25;100.00;96119.41;5045900;28;20096;-61
2023/12/21 06:47:38;;;;;;;0.30;0.30;;;;;;;2.20;99.52;96080.56;5045793;28;20048;-61
2023/12/21 06:50:06;;;;;;;0.35;0.35;;;;;;;2.83;98.27;96170.09;5045761;28;20048;-61
2023/12/21 06:52:33;;;;;;;0.40;0.40;;;;;;;2.49;99.25;96081.16;5045632;28;20059;-62
2023/12/21 06:55:00;;;;;;;0.40;0.40;;;;;;;3.13;98.72;96157.75;5035861;28;20432;-63
2023/12/21 06:57:28;;;;;;;0.30;0.30;;;;;;;1.65;96.60;95922.75;5044425;28;20106;-68
2023/12/21 06:59:55;;;;;;;0.40;0.40;;;;;;;3.39;95.03;96174.59;5042834;28;20045;-62
2023/12/21 07:02:21;;;;;;;0.40;0.40;;;;;;;2.71;96.01;96041.59;5041563;28;20123;-63
2023/12/21 07:04:48;;;;;;;0.40;0.40;;;;;;;3.49;95.01;96122.13;5044768;28;20049;-64
2023/12/21 07:07:15;;;;;;;0.40;0.40;;;;;;;3.76;92.90;96173.34;5044721;28;20052;-61
2023/12/21 07:09:42;;;;;;;0.40;0.40;;;;;;;3.47;92.67;96124.41;5044736;28;20060;-62
2023/12/21 07:12:10;;;;;;;0.30;0.30;;;;;;;3.47;92.84;96110.72;5044564;28;20136;-62
2023/12/21 07:14:40;;;;;;;0.40;0.40;;;;;;;2.69;92.47;95978.28;5043739;28;20045;-61
2023/12/21 07:17:07;;;;;;;0.40;0.40;;;;;;;3.89;94.05;96141.25;5044031;28;20045;-63
2023/12/21 07:19:37;;;;;;;0.40;0.40;;;;;;;3.98;91.17;96159.09;5043417;28;20053;-63
2023/12/21 07:22:05;;;;;;;0.40;0.40;;;;;;;4.43;89.71;96183.41;5044851;28;20052;-62
2023/12/21 07:24:31;;;;;;;0.40;0.40;;;;;;;2.19;88.62;95855.00;5033119;28;20115;-64
2023/12/21 07:26:58;;;;;;;0.40;0.40;;;;;;;3.53;88.33;96106.59;5026815;28;20413;-66
2023/12/21 07:29:25;;;;;;;0.50;0.50;;;;;;;3.44;89.45;96085.97;5044052;28;20128;-69
2023/12/21 07:31:52;;;;;;;0.40;0.40;;;;;;;4.04;88.82;96200.75;5041919;28;20060;-67
2023/12/21 07:34:18;;;;;;;0.40;0.40;;;;;;;4.25;90.37;96210.34;5042977;28;20079;-63
2023/12/21 07:36:46;;;;;;;0.40;0.40;;;;;;;2.44;89.59;95943.94;5044838;28;20059;-65
2023/12/21 07:39:12;;;;;;;0.40;0.40;;;;;;;4.65;88.69;96204.75;5039154;28;20056;-66
2023/12/21 07:41:39;;;;;;;0.40;0.40;;;;;;;4.38;89.21;96134.31;5037925;28;20579;-69
2023/12/21 07:44:06;;;;;;;0.50;0.50;;;;;;;4.95;88.41;96188.66;5043804;28;20554;-71
2023/12/21 07:46:33;;;;;;;0.40;0.40;;;;;;;5.01;86.24;96176.25;5043450;28;20056;-69
2023/12/21 07:48:59;;;;;;;0.50;0.50;;;;;;;4.99;84.88;96151.13;5042065;28;20057;-68
2023/12/21 07:51:26;;;;;;;0.50;0.50;;;;;;;5.47;84.23;96211.88;5046548;28;20085;-65
2023/12/21 07:53:53;;;;;;;0.60;0.60;;;;;;;5.79;84.10;96218.88;5042391;28;20572;-66
2023/12/21 07:56:21;;;;;;;0.50;0.50;;;;;;;6.00;83.48;96219.38;5044165;28;20126;-65
2023/12/21 07:58:48;;;;;;;0.50;0.50;;;;;;;6.22;83.65;96215.09;5041653;28;20571;-61
2023/12/21 08:01:14;;;;;;;0.50;0.50;;;;;;;6.32;81.50;96210.97;5029414;28;20046;-63
2023/12/21 08:03:42;;;;;;;0.50;0.50;;;;;;;5.95;81.32;96128.16;5043097;28;20128;-66
2023/12/21 08:06:19;;;;;;;0.55;0.55;;;;;;;6.53;82.19;96195.66;5043796;28;20045;-65
2023/12/21 08:08:46;;;;;;;0.50;0.50;;;;;;;6.13;81.59;96222.78;5042343;28;20120;-62
2023/12/21 08:11:23;;;;;;;0.60;0.60;;;;;;;6.44;82.00;96225.34;5041674;28;20052;-65
2023/12/21 08:13:52;;;;;;;0.50;0.50;;;;;;;6.45;81.67;96191.19;5045667;28;20049;-64
2023/12/21 08:16:19;;;;;;;0.50;0.50;;;;;;;6.80;81.74;96216.59;5058758;28;20052;-62
2023/12/21 08:18:45;;;;;;;0.60;0.60;;;;;;;6.96;81.46;96222.78;5043469;28;20063;-64
2023/12/21 08:21:12;;;;;;;0.50;0.50;;;;;;;7.17;79.91;96223.16;5043648;28;20057;-62
2023/12/21 08:23:39;;;;;;;0.50;0.50;;;;;;;7.24;80.43;96205.97;5043574;28;20607;-65
2023/12/21 08:26:06;;;;;;;0.60;0.60;;;;;;;7.45;79.88;96190.53;5043470;28;20745;-63
2023/12/21 08:28:33;;;;;;;0.60;0.60;;;;;;;7.52;79.78;96162.31;5043657;28;20766;-62
2023/12/21 08:31:00;;;;;;;0.70;0.70;;;;;;;7.44;79.39;96119.28;5043497;28;20085;-63
2023/12/21 08:33:27;;;;;;;0.60;0.60;;;;;;;7.46;77.48;96103.97;5041583;28;20546;-63
2023/12/21 08:35:54;;;;;;;0.70;0.70;;;;;;;8.10;77.18;96193.00;5041780;28;20067;-60
2023/12/21 08:38:21;;;;;;;0.70;0.70;;;;;;;8.17;76.94;96168.28;5043234;28;20152;-60
2023/12/21 08:40:47;;;;;;;0.80;0.80;;;;;;;8.30;75.87;96169.66;5043429;28;20524;-65
2023/12/21 08:43:14;;;;;;;0.70;0.70;;;;;;;8.49;74.79;96186.00;5042867;28;20052;-62
2023/12/21 08:45:41;;;;;;;0.70;0.70;;;;;;;8.57;75.85;96179.38;5037963;28;20052;-61
2023/12/21 08:48:08;;;;;;;0.70;0.70;;;;;;;8.68;74.98;96180.28;5056988;28;20061;-62
2023/12/21 08:50:38;;;;;;;0.80;0.80;;;;;;;8.83;71.72;96187.56;5042589;28;20063;-62
2023/12/21 08:53:05;;;;;;;0.70;0.70;;;;;;;9.02;71.24;96179.88;5043995;28;20503;-66
2023/12/21 08:55:31;;;;;;;0.77;0.77;;;;;;;8.84;70.07;96150.47;5043027;28;20132;-63
2023/12/21 08:57:58;;;;;;;0.70;0.70;;;;;;;9.25;69.44;96184.41;5047930;28;20142;-64
2023/12/21 09:00:26;;;;;;;0.70;0.70;;;;;;;9.05;69.17;96145.16;5055204;28;20106;-62
2023/12/21 09:02:52;;;;;;;0.80;0.80;;;;;;;9.31;70.38;96158.00;5052994;28;20507;-63
2023/12/21 09:05:23;;;;;;;0.80;0.80;;;;;;;9.25;68.25;96143.72;5042012;28;20465;-62
2023/12/21 09:07:50;;;;;;;0.80;0.80;;;;;;;9.14;66.57;96065.50;5046690;28;20053;-63
2023/12/21 09:10:18;;;;;;;0.70;0.70;;;;;;;9.85;66.07;96161.50;5046161;28;20436;-61
2023/12/21 09:12:45;;;;;;;0.80;0.80;;;;;;;9.87;66.14;96153.59;5046836;28;20571;-62
2023/12/21 09:15:12;;;;;;;0.80;0.80;;;;;;;9.28;66.93;96037.19;5046786;28;20076;-61
2023/12/21 09:17:40;;;;;;;0.80;0.80;;;;;;;9.30;67.01;95996.91;5046689;28;20136;-62
2023/12/21 09:20:08;;;;;;;0.80;0.80;;;;;;;10.20;65.92;96117.41;5046460;28;20055;-63
2023/12/21 09:22:36;;;;;;;0.70;0.70;;;;;;;9.77;64.75;96016.06;5061847;28;20060;-62
2023/12/21 09:25:04;;;;;;;0.80;0.80;;;;;;;10.39;63.77;96096.91;5043891;28;20155;-62
2023/12/21 09:27:32;;;;;;;0.80;0.80;;;;;;;10.64;62.57;96119.88;5046965;28;20516;-61
2023/12/21 09:29:59;;;;;;;0.90;0.90;;;;;;;10.66;62.59;96117.53;5046162;28;20057;-63
2023/12/21 09:32:26;;;;;;;0.80;0.80;;;;;;;10.59;61.75;96101.69;5046582;28;20439;-64
2023/12/21 09:34:53;;;;;;;0.90;0.90;;;;;;;10.62;61.30;96117.50;5046854;28;20526;-61
2023/12/21 09:37:20;;;;;;;0.90;0.90;;;;;;;10.79;60.50;96106.84;5046997;28;20063;-61
2023/12/21 09:39:46;;;;;;;1.00;1.00;;;;;;;10.97;59.19;96116.00;5045087;28;20588;-62
2023/12/21 09:42:14;;;;;;;0.80;0.80;;;;;;;10.52;60.95;96035.25;5043503;28;20439;-61
2023/12/21 09:44:49;;;;;;;0.80;0.80;;;;;;;11.24;61.37;96092.22;5044410;28;20059;-62
2023/12/21 09:47:19;;;;;;;0.88;0.88;;;;;;;9.36;60.78;95746.66;5044679;28;20053;-64
2023/12/21 09:49:47;;;;;;;0.90;0.90;;;;;;;11.77;60.68;96081.84;5045066;28;20048;-63
2023/12/21 09:52:17;;;;;;;0.90;0.90;;;;;;;11.33;59.41;95992.81;5045572;28;20081;-64
2023/12/21 09:54:47;;;;;;;0.90;0.90;;;;;;;11.26;58.50;95962.31;5044137;28;20515;-62
2023/12/21 09:57:14;;;;;;;1.00;1.00;;;;;;;12.36;57.96;96064.09;5045097;28;20057;-64
2023/12/21 09:59:41;;;;;;;0.90;0.90;;;;;;;12.70;57.45;96051.19;5045302;28;20049;-64
2023/12/21 10:02:14;;;;;;;1.10;1.10;;;;;;;12.58;55.19;96037.81;5044968;28;20579;-62
2023/12/21 10:04:44;;;;;;;1.00;1.00;;;;;;;12.72;55.15;96048.81;5044697;28;20118;-63
2023/12/21 10:07:12;;;;;;;1.13;1.13;;;;;;;12.71;54.27;96038.13;5046375;28;20049;-61
2023/12/21 10:09:40;;;;;;;1.08;1.08;;;;;;;12.81;55.45;96043.56;5043506;28;20535;-62
2023/12/21 10:12:07;;;;;;;1.00;1.00;;;;;;;12.27;55.18;95944.38;5045638;28;20045;-61
2023/12/21 10:14:34;;;;;;;1.00;1.00;;;;;;;12.45;55.16;95972.81;5045950;28;20048;-61
2023/12/21 10:17:01;;;;;;;1.00;1.00;;;;;;;13.08;55.68;96021.53;5044996;28;20052;-63
2023/12/21 10:19:28;;;;;;;1.10;1.10;;;;;;;12.85;54.22;95974.84;5045667;28;20417;-63
2023/12/21 10:21:56;;;;;;;1.10;1.10;;;;;;;12.49;54.90;96028.34;5045796;28;20088;-62
2023/12/21 10:24:25;;;;;;;0.90;0.90;;;;;;;12.34;56.17;96027.66;5037261;28;20522;-66
2023/12/21 10:26:53;;;;;;;1.20;1.20;;;;;;;12.55;56.03;95999.72;5045220;28;20041;-63
2023/12/21 10:29:22;;;;;;;1.10;1.10;;;;;;;12.94;55.27;96005.75;5044265;28;20231;-63
2023/12/21 10:31:49;;;;;;;1.10;1.10;;;;;;;12.08;54.64;95917.16;5045526;28;20049;-64
2023/12/21 10:34:16;;;;;;;1.10;1.10;;;;;;;13.15;54.52;96027.81;5045497;28;20491;-64
2023/12/21 10:36:44;;;;;;;1.13;1.13;;;;;;;13.42;54.66;96019.63;5045795;28;20049;-61
2023/12/21 10:39:14;;;;;;;1.10;1.10;;;;;;;12.29;51.22;95930.09;5045234;28;20555;-63
2023/12/21 10:41:43;;;;;;;1.00;1.00;;;;;;;12.59;50.92;96017.16;5045333;28;20079;-64
2023/12/21 10:44:15;;;;;;;1.00;1.00;;;;;;;13.04;49.72;96043.81;5045204;28;20064;-65
2023/12/21 10:46:42;;;;;;;1.10;1.10;;;;;;;13.24;48.65;96008.69;5045761;28;20060;-64
2023/12/21 10:49:10;;;;;;;1.05;1.05;;;;;;;12.85;48.52;95966.50;5045275;28;20071;-64
2023/12/21 10:51:43;;;;;;;1.00;1.00;;;;;;;13.35;47.74;96003.78;5044007;28;20063;-64
2023/12/21 10:54:14;;;;;;;0.90;0.90;;;;;;;13.35;48.96;96003.78;5045465;28;20052;-63
2023/12/21 10:56:44;;;;;;;1.17;1.17;;;;;;;13.51;48.12;96006.78;5060385;28;20055;-63
2023/12/21 10:59:15;;;;;;;1.15;1.15;;;;;;;13.61;47.41;96000.31;5043256;28;20049;-64
2023/12/21 11:01:42;;;;;;;1.17;1.17;;;;;;;13.67;47.45;96004.22;5045121;28;20052;-61
2023/12/21 11:04:11;;;;;;;1.13;1.13;;;;;;;13.88;46.65;96002.38;5044831;28;20067;-63
2023/12/21 11:06:40;;;;;;;1.10;1.10;;;;;;;12.96;45.34;95892.16;5043399;28;20060;-62
2023/12/21 11:09:09;;;;;;;1.20;1.20;;;;;;;13.40;46.29;95946.91;5044482;28;20045;-62
2023/12/21 11:11:36;;;;;;;1.17;1.17;;;;;;;13.72;45.64;96010.53;5043410;28;20053;-63
2023/12/21 11:14:03;;;;;;;1.08;1.08;;;;;;;13.05;46.74;95875.03;5044791;28;20453;-64
2023/12/21 11:16:42;;;;;;;1.17;1.17;;;;;;;13.87;45.74;95987.66;5045232;28;20067;-63
2023/12/21 11:19:13;;;;;;;1.00;1.00;;;;;;;13.88;44.13;95978.09;5044812;28;20144;-63
2023/12/21 11:21:40;;;;;;;1.00;1.00;;;;;;;13.75;44.88;95977.09;5043262;28;20106;-63
2023/12/21 11:24:07;;;;;;;1.10;1.10;;;;;;;13.73;45.16;95962.00;5034877;28;20052;-63
2023/12/21 11:26:36;;;;;;;1.30;1.30;;;;;;;13.58;46.15;95906.53;5044519;28;20048;-63
2023/12/21 11:29:07;;;;;;;1.20;1.20;;;;;;;13.99;45.78;95964.06;5044571;28;20123;-63
2023/12/21 11:31:41;;;;;;;1.00;1.00;;;;;;;13.66;45.58;95916.38;5044274;28;20072;-62
2023/12/21 11:34:12;;;;;;;1.25;1.25;;;;;;;14.13;45.80;95952.72;5044206;28;20067;-62
2023/12/21 11:36:39;;;;;;;1.30;1.30;;;;;;;14.12;45.99;95951.13;5044244;28;20526;-62
2023/12/21 11:39:12;;;;;;;1.30;1.30;;;;;;;13.86;46.06;95893.44;5044137;28;20049;-64